sensor_id;sensor_type;location;lat;lon;timestamp;temperature;humidity
10030;DHT22;5055;52.054;8.524;2023-09-30T00:01:00;12.10;97.00
10030;DHT22;5055;52.054;8.524;2023-09-30T00:03:40;12.00;97.00
10030;DHT22;5055;52.054;8.524;2023-09-30T00:06:18;12.00;97.00
10030;DHT22;5055;52.054;8.524;2023-09-30T00:12:25;12.00;97.00
10030;DHT22;5055;52.054;8.524;2023-09-30T00:15:31;12.00;97.00
10030;DHT22;5055;52.054;8.524;2023-09-30T00:18:17;11.90;97.00
10030;DHT22;5055;52.054;8.524;2023-09-30T00:21:01;11.90;97.00
10030;DHT22;5055;52.054;8.524;2023-09-30T00:23:56;11.90;97.00
10030;DHT22;5055;52.054;8.524;2023-09-30T00:26:38;11.90;97.00
10030;DHT22;5055;52.054;8.524;2023-09-30T00:29:45;11.90;97.00
10030;DHT22;5055;52.054;8.524;2023-09-30T00:32:30;11.80;97.00
10030;DHT22;5055;52.054;8.524;2023-09-30T00:35:27;11.70;97.00
10030;DHT22;5055;52.054;8.524;2023-09-30T00:38:34;11.70;97.00
10030;DHT22;5055;52.054;8.524;2023-09-30T00:41:10;11.70;97.00
10030;DHT22;5055;52.054;8.524;2023-09-30T00:43:41;11.70;97.00
10030;DHT22;5055;52.054;8.524;2023-09-30T00:46:41;11.70;97.00
10030;DHT22;5055;52.054;8.524;2023-09-30T00:49:39;11.60;97.00
10030;DHT22;5055;52.054;8.524;2023-09-30T00:52:40;11.60;97.00
10030;DHT22;5055;52.054;8.524;2023-09-30T00:55:25;11.60;97.00
10030;DHT22;5055;52.054;8.524;2023-09-30T00:58:05;11.60;97.00
10030;DHT22;5055;52.054;8.524;2023-09-30T01:01:05;11.60;97.00
10030;DHT22;5055;52.054;8.524;2023-09-30T01:04:04;11.60;97.00
10030;DHT22;5055;52.054;8.524;2023-09-30T01:06:53;11.80;97.00
10030;DHT22;5055;52.054;8.524;2023-09-30T01:09:32;11.90;97.00
10030;DHT22;5055;52.054;8.524;2023-09-30T01:12:10;11.80;97.00
10030;DHT22;5055;52.054;8.524;2023-09-30T01:14:56;11.80;97.00
10030;DHT22;5055;52.054;8.524;2023-09-30T01:17:48;11.90;97.00
10030;DHT22;5055;52.054;8.524;2023-09-30T01:20:34;12.00;97.00
10030;DHT22;5055;52.054;8.524;2023-09-30T01:23:34;12.10;97.00
10030;DHT22;5055;52.054;8.524;2023-09-30T01:26:29;12.10;97.00
10030;DHT22;5055;52.054;8.524;2023-09-30T01:29:22;12.20;97.00
10030;DHT22;5055;52.054;8.524;2023-09-30T01:32:25;12.20;97.00
10030;DHT22;5055;52.054;8.524;2023-09-30T01:35:06;12.20;97.00
10030;DHT22;5055;52.054;8.524;2023-09-30T01:37:57;12.10;97.00
10030;DHT22;5055;52.054;8.524;2023-09-30T01:40:48;12.10;97.00
10030;DHT22;5055;52.054;8.524;2023-09-30T01:43:50;12.10;97.00
10030;DHT22;5055;52.054;8.524;2023-09-30T01:46:27;12.10;97.00
10030;DHT22;5055;52.054;8.524;2023-09-30T01:49:28;12.10;97.00
10030;DHT22;5055;52.054;8.524;2023-09-30T01:52:20;12.10;97.00
10030;DHT22;5055;52.054;8.524;2023-09-30T01:55:45;12.10;97.00
10030;DHT22;5055;52.054;8.524;2023-09-30T01:58:27;12.10;97.00
10030;DHT22;5055;52.054;8.524;2023-09-30T02:01:11;12.10;97.00
10030;DHT22;5055;52.054;8.524;2023-09-30T02:03:54;12.10;97.00
10030;DHT22;5055;52.054;8.524;2023-09-30T02:06:42;12.10;97.00
10030;DHT22;5055;52.054;8.524;2023-09-30T02:09:41;12.10;97.00
10030;DHT22;5055;52.054;8.524;2023-09-30T02:12:35;12.10;97.00
10030;DHT22;5055;52.054;8.524;2023-09-30T02:15:26;12.10;97.00
10030;DHT22;5055;52.054;8.524;2023-09-30T02:18:24;12.10;97.00
10030;DHT22;5055;52.054;8.524;2023-09-30T02:21:04;12.10;97.00
10030;DHT22;5055;52.054;8.524;2023-09-30T02:23:44;12.10;97.00
10030;DHT22;5055;52.054;8.524;2023-09-30T02:26:41;12.10;97.00
10030;DHT22;5055;52.054;8.524;2023-09-30T02:30:00;12.10;97.00
10030;DHT22;5055;52.054;8.524;2023-09-30T02:32:57;12.10;97.00
10030;DHT22;5055;52.054;8.524;2023-09-30T02:35:50;12.10;97.00
10030;DHT22;5055;52.054;8.524;2023-09-30T02:38:51;12.20;97.00
10030;DHT22;5055;52.054;8.524;2023-09-30T02:41:41;12.20;97.00
10030;DHT22;5055;52.054;8.524;2023-09-30T02:44:41;12.10;97.00
10030;DHT22;5055;52.054;8.524;2023-09-30T02:47:46;12.10;97.00
10030;DHT22;5055;52.054;8.524;2023-09-30T02:50:42;12.10;97.00
10030;DHT22;5055;52.054;8.524;2023-09-30T02:53:26;12.10;97.00
10030;DHT22;5055;52.054;8.524;2023-09-30T02:56:11;12.10;97.00
10030;DHT22;5055;52.054;8.524;2023-09-30T02:59:07;12.10;97.00
10030;DHT22;5055;52.054;8.524;2023-09-30T03:01:53;12.10;97.00
10030;DHT22;5055;52.054;8.524;2023-09-30T03:04:54;12.10;97.00
10030;DHT22;5055;52.054;8.524;2023-09-30T03:07:48;12.00;97.00
10030;DHT22;5055;52.054;8.524;2023-09-30T03:10:25;12.00;97.00
10030;DHT22;5055;52.054;8.524;2023-09-30T03:13:17;12.00;97.00
10030;DHT22;5055;52.054;8.524;2023-09-30T03:16:06;12.00;97.00
10030;DHT22;5055;52.054;8.524;2023-09-30T03:19:02;12.00;97.00
10030;DHT22;5055;52.054;8.524;2023-09-30T03:21:57;12.00;97.00
10030;DHT22;5055;52.054;8.524;2023-09-30T03:24:51;12.00;97.00
10030;DHT22;5055;52.054;8.524;2023-09-30T03:27:39;11.90;97.00
10030;DHT22;5055;52.054;8.524;2023-09-30T03:30:24;11.80;97.00
10030;DHT22;5055;52.054;8.524;2023-09-30T03:33:18;11.80;97.00
10030;DHT22;5055;52.054;8.524;2023-09-30T03:36:24;11.70;97.00
10030;DHT22;5055;52.054;8.524;2023-09-30T03:39:31;11.70;97.00
10030;DHT22;5055;52.054;8.524;2023-09-30T03:42:30;11.60;97.00
10030;DHT22;5055;52.054;8.524;2023-09-30T03:45:22;11.60;97.00
10030;DHT22;5055;52.054;8.524;2023-09-30T03:48:03;11.60;97.00
10030;DHT22;5055;52.054;8.524;2023-09-30T03:50:50;11.60;97.00
10030;DHT22;5055;52.054;8.524;2023-09-30T03:53:41;11.50;97.00
10030;DHT22;5055;52.054;8.524;2023-09-30T03:56:53;11.50;97.00
10030;DHT22;5055;52.054;8.524;2023-09-30T04:00:10;11.50;97.00
10030;DHT22;5055;52.054;8.524;2023-09-30T04:02:57;11.50;97.00
10030;DHT22;5055;52.054;8.524;2023-09-30T04:05:39;11.50;97.00
10030;DHT22;5055;52.054;8.524;2023-09-30T04:08:33;11.50;97.00
10030;DHT22;5055;52.054;8.524;2023-09-30T04:11:10;11.40;97.00
10030;DHT22;5055;52.054;8.524;2023-09-30T04:14:22;11.40;97.00
10030;DHT22;5055;52.054;8.524;2023-09-30T04:17:32;11.40;97.00
10030;DHT22;5055;52.054;8.524;2023-09-30T04:20:15;11.30;97.00
10030;DHT22;5055;52.054;8.524;2023-09-30T04:22:54;11.30;97.00
10030;DHT22;5055;52.054;8.524;2023-09-30T04:25:51;11.20;97.00
10030;DHT22;5055;52.054;8.524;2023-09-30T04:28:35;11.20;97.00
10030;DHT22;5055;52.054;8.524;2023-09-30T04:31:27;11.20;97.00
10030;DHT22;5055;52.054;8.524;2023-09-30T04:34:19;11.20;97.00
10030;DHT22;5055;52.054;8.524;2023-09-30T04:37:00;11.10;97.00
10030;DHT22;5055;52.054;8.524;2023-09-30T04:39:46;11.10;97.00
10030;DHT22;5055;52.054;8.524;2023-09-30T04:42:46;11.10;97.00
10030;DHT22;5055;52.054;8.524;2023-09-30T04:45:51;11.20;97.00
10030;DHT22;5055;52.054;8.524;2023-09-30T04:48:35;11.10;97.00
10030;DHT22;5055;52.054;8.524;2023-09-30T04:51:28;11.10;97.00
10030;DHT22;5055;52.054;8.524;2023-09-30T04:54:07;11.00;97.00
10030;DHT22;5055;52.054;8.524;2023-09-30T04:56:50;11.00;97.00
10030;DHT22;5055;52.054;8.524;2023-09-30T04:59:44;11.00;97.00
10030;DHT22;5055;52.054;8.524;2023-09-30T05:02:36;11.00;97.00
10030;DHT22;5055;52.054;8.524;2023-09-30T05:05:30;11.00;97.00
10030;DHT22;5055;52.054;8.524;2023-09-30T05:08:24;11.00;97.00
10030;DHT22;5055;52.054;8.524;2023-09-30T05:11:09;11.00;97.00
10030;DHT22;5055;52.054;8.524;2023-09-30T05:14:04;11.00;97.00
10030;DHT22;5055;52.054;8.524;2023-09-30T05:16:53;11.00;97.00
10030;DHT22;5055;52.054;8.524;2023-09-30T05:20:09;11.00;97.00
10030;DHT22;5055;52.054;8.524;2023-09-30T05:23:03;11.00;97.00
10030;DHT22;5055;52.054;8.524;2023-09-30T05:25:47;11.10;97.00
10030;DHT22;5055;52.054;8.524;2023-09-30T05:28:30;11.10;97.00
10030;DHT22;5055;52.054;8.524;2023-09-30T05:31:17;11.10;97.00
10030;DHT22;5055;52.054;8.524;2023-09-30T05:34:02;11.20;97.00
10030;DHT22;5055;52.054;8.524;2023-09-30T05:36:48;11.30;97.00
10030;DHT22;5055;52.054;8.524;2023-09-30T05:39:54;11.30;97.00
10030;DHT22;5055;52.054;8.524;2023-09-30T05:42:40;11.30;97.00
10030;DHT22;5055;52.054;8.524;2023-09-30T05:45:18;11.40;97.00
10030;DHT22;5055;52.054;8.524;2023-09-30T05:48:13;11.40;97.00
10030;DHT22;5055;52.054;8.524;2023-09-30T05:51:02;11.40;97.00
10030;DHT22;5055;52.054;8.524;2023-09-30T05:54:09;11.50;97.00
10030;DHT22;5055;52.054;8.524;2023-09-30T05:57:17;11.50;97.00
10030;DHT22;5055;52.054;8.524;2023-09-30T06:00:12;11.60;97.00
10030;DHT22;5055;52.054;8.524;2023-09-30T06:03:09;11.60;97.00
10030;DHT22;5055;52.054;8.524;2023-09-30T06:05:53;11.60;97.00
10030;DHT22;5055;52.054;8.524;2023-09-30T06:08:58;11.60;97.00
10030;DHT22;5055;52.054;8.524;2023-09-30T06:12:09;11.70;97.00
10030;DHT22;5055;52.054;8.524;2023-09-30T06:15:05;11.70;97.00
10030;DHT22;5055;52.054;8.524;2023-09-30T06:18:01;11.80;97.00
10030;DHT22;5055;52.054;8.524;2023-09-30T06:20:48;11.80;97.00
10030;DHT22;5055;52.054;8.524;2023-09-30T06:23:41;12.00;97.00
10030;DHT22;5055;52.054;8.524;2023-09-30T06:26:40;12.10;97.00
10030;DHT22;5055;52.054;8.524;2023-09-30T06:29:22;12.10;97.00
10030;DHT22;5055;52.054;8.524;2023-09-30T06:32:19;12.20;97.00
10030;DHT22;5055;52.054;8.524;2023-09-30T06:35:15;12.30;97.00
10030;DHT22;5055;52.054;8.524;2023-09-30T06:38:01;12.40;97.00
10030;DHT22;5055;52.054;8.524;2023-09-30T06:40:49;12.50;97.00
10030;DHT22;5055;52.054;8.524;2023-09-30T06:43:30;12.80;97.00
10030;DHT22;5055;52.054;8.524;2023-09-30T06:46:10;13.10;97.00
10030;DHT22;5055;52.054;8.524;2023-09-30T06:49:12;13.50;97.00
10030;DHT22;5055;52.054;8.524;2023-09-30T06:52:26;13.90;97.00
10030;DHT22;5055;52.054;8.524;2023-09-30T06:55:25;14.10;97.00
10030;DHT22;5055;52.054;8.524;2023-09-30T06:58:24;14.50;97.00
10030;DHT22;5055;52.054;8.524;2023-09-30T07:01:00;14.70;97.00
10030;DHT22;5055;52.054;8.524;2023-09-30T07:04:23;14.80;97.00
10030;DHT22;5055;52.054;8.524;2023-09-30T07:07:05;15.00;97.00
10030;DHT22;5055;52.054;8.524;2023-09-30T07:10:03;15.30;97.00
10030;DHT22;5055;52.054;8.524;2023-09-30T07:12:50;15.30;97.00
10030;DHT22;5055;52.054;8.524;2023-09-30T07:15:36;15.60;97.00
10030;DHT22;5055;52.054;8.524;2023-09-30T07:18:18;15.70;97.00
10030;DHT22;5055;52.054;8.524;2023-09-30T07:21:22;15.80;97.00
10030;DHT22;5055;52.054;8.524;2023-09-30T07:24:01;15.90;97.00
10030;DHT22;5055;52.054;8.524;2023-09-30T07:26:48;15.80;97.00
10030;DHT22;5055;52.054;8.524;2023-09-30T07:30:08;16.00;97.00
10030;DHT22;5055;52.054;8.524;2023-09-30T07:32:55;16.20;97.00
10030;DHT22;5055;52.054;8.524;2023-09-30T07:35:46;16.40;97.00
10030;DHT22;5055;52.054;8.524;2023-09-30T07:38:58;16.50;97.00
10030;DHT22;5055;52.054;8.524;2023-09-30T07:41:43;16.70;97.00
10030;DHT22;5055;52.054;8.524;2023-09-30T07:44:30;16.90;97.00
10030;DHT22;5055;52.054;8.524;2023-09-30T07:47:15;17.20;97.00
10030;DHT22;5055;52.054;8.524;2023-09-30T07:50:11;17.20;97.00
10030;DHT22;5055;52.054;8.524;2023-09-30T07:53:01;17.30;97.00
10030;DHT22;5055;52.054;8.524;2023-09-30T07:56:00;17.30;97.00
10030;DHT22;5055;52.054;8.524;2023-09-30T07:58:49;17.60;97.00
10030;DHT22;5055;52.054;8.524;2023-09-30T08:01:45;17.60;97.00
10030;DHT22;5055;52.054;8.524;2023-09-30T08:04:47;17.60;97.00
10030;DHT22;5055;52.054;8.524;2023-09-30T08:07:24;17.50;97.00
10030;DHT22;5055;52.054;8.524;2023-09-30T08:10:03;17.50;97.00
10030;DHT22;5055;52.054;8.524;2023-09-30T08:13:07;17.80;97.00
10030;DHT22;5055;52.054;8.524;2023-09-30T08:15:55;17.80;97.00
10030;DHT22;5055;52.054;8.524;2023-09-30T08:18:55;17.50;97.00
10030;DHT22;5055;52.054;8.524;2023-09-30T08:21:38;17.40;97.00
10030;DHT22;5055;52.054;8.524;2023-09-30T08:24:31;17.30;97.00
10030;DHT22;5055;52.054;8.524;2023-09-30T08:27:37;17.50;97.00
10030;DHT22;5055;52.054;8.524;2023-09-30T08:30:47;17.70;97.00
10030;DHT22;5055;52.054;8.524;2023-09-30T08:33:45;17.80;97.00
10030;DHT22;5055;52.054;8.524;2023-09-30T08:36:49;17.80;97.00
10030;DHT22;5055;52.054;8.524;2023-09-30T08:39:52;17.90;97.00
10030;DHT22;5055;52.054;8.524;2023-09-30T08:43:09;17.90;97.00
10030;DHT22;5055;52.054;8.524;2023-09-30T08:46:01;18.00;97.00
10030;DHT22;5055;52.054;8.524;2023-09-30T08:49:24;17.80;97.00
10030;DHT22;5055;52.054;8.524;2023-09-30T08:52:28;17.90;97.00
10030;DHT22;5055;52.054;8.524;2023-09-30T08:55:08;18.00;97.00
10030;DHT22;5055;52.054;8.524;2023-09-30T08:58:11;18.40;97.00
10030;DHT22;5055;52.054;8.524;2023-09-30T09:01:03;18.40;97.00
10030;DHT22;5055;52.054;8.524;2023-09-30T09:03:50;18.60;97.00
10030;DHT22;5055;52.054;8.524;2023-09-30T09:06:36;18.90;97.00
10030;DHT22;5055;52.054;8.524;2023-09-30T09:09:29;18.90;97.00
10030;DHT22;5055;52.054;8.524;2023-09-30T09:12:26;19.20;97.00
10030;DHT22;5055;52.054;8.524;2023-09-30T09:15:35;19.00;97.00
10030;DHT22;5055;52.054;8.524;2023-09-30T09:18:35;19.60;97.00
10030;DHT22;5055;52.054;8.524;2023-09-30T09:21:18;19.60;97.00
10030;DHT22;5055;52.054;8.524;2023-09-30T09:24:05;20.10;97.00
10030;DHT22;5055;52.054;8.524;2023-09-30T09:26:47;20.20;97.00
10030;DHT22;5055;52.054;8.524;2023-09-30T09:29:31;19.60;97.00
10030;DHT22;5055;52.054;8.524;2023-09-30T09:32:19;19.50;97.00
10030;DHT22;5055;52.054;8.524;2023-09-30T09:35:47;19.80;97.00
10030;DHT22;5055;52.054;8.524;2023-09-30T09:38:23;20.10;97.00
10030;DHT22;5055;52.054;8.524;2023-09-30T09:41:19;20.30;97.00
10030;DHT22;5055;52.054;8.524;2023-09-30T09:44:17;20.70;97.00
10030;DHT22;5055;52.054;8.524;2023-09-30T09:47:24;20.60;97.00
10030;DHT22;5055;52.054;8.524;2023-09-30T09:50:22;20.50;97.00
10030;DHT22;5055;52.054;8.524;2023-09-30T09:53:31;20.30;97.00
10030;DHT22;5055;52.054;8.524;2023-09-30T09:56:22;20.30;97.00
10030;DHT22;5055;52.054;8.524;2023-09-30T09:59:07;20.10;97.00
10030;DHT22;5055;52.054;8.524;2023-09-30T10:01:50;20.10;97.00
10030;DHT22;5055;52.054;8.524;2023-09-30T10:04:53;20.40;97.00
10030;DHT22;5055;52.054;8.524;2023-09-30T10:08:05;20.60;97.00
10030;DHT22;5055;52.054;8.524;2023-09-30T10:11:31;20.10;97.00
10030;DHT22;5055;52.054;8.524;2023-09-30T10:14:43;19.90;97.00
10030;DHT22;5055;52.054;8.524;2023-09-30T10:18:00;20.10;97.00
10030;DHT22;5055;52.054;8.524;2023-09-30T10:20:53;20.30;97.00
10030;DHT22;5055;52.054;8.524;2023-09-30T10:24:30;20.60;97.00
10030;DHT22;5055;52.054;8.524;2023-09-30T10:27:50;20.60;97.00
10030;DHT22;5055;52.054;8.524;2023-09-30T10:30:32;21.00;97.00
10030;DHT22;5055;52.054;8.524;2023-09-30T10:33:28;21.60;97.00
10030;DHT22;5055;52.054;8.524;2023-09-30T10:43:09;22.50;97.00
10030;DHT22;5055;52.054;8.524;2023-09-30T10:46:34;22.10;97.00
10030;DHT22;5055;52.054;8.524;2023-09-30T10:49:38;21.90;97.00
10030;DHT22;5055;52.054;8.524;2023-09-30T10:52:22;21.60;97.00
10030;DHT22;5055;52.054;8.524;2023-09-30T10:55:04;21.80;97.00
10030;DHT22;5055;52.054;8.524;2023-09-30T11:01:03;22.00;97.00
10030;DHT22;5055;52.054;8.524;2023-09-30T11:03:59;22.00;97.00
10030;DHT22;5055;52.054;8.524;2023-09-30T11:07:04;21.80;97.00
10030;DHT22;5055;52.054;8.524;2023-09-30T11:10:18;22.00;97.00
10030;DHT22;5055;52.054;8.524;2023-09-30T11:13:00;22.40;97.00
10030;DHT22;5055;52.054;8.524;2023-09-30T11:15:47;22.90;97.00
10030;DHT22;5055;52.054;8.524;2023-09-30T11:18:38;23.20;97.00
10030;DHT22;5055;52.054;8.524;2023-09-30T11:21:18;23.60;97.00
10030;DHT22;5055;52.054;8.524;2023-09-30T11:23:58;23.70;97.00
10030;DHT22;5055;52.054;8.524;2023-09-30T11:26:44;23.60;97.00
10030;DHT22;5055;52.054;8.524;2023-09-30T11:29:30;23.70;97.00
10030;DHT22;5055;52.054;8.524;2023-09-30T11:32:10;23.70;97.00
10030;DHT22;5055;52.054;8.524;2023-09-30T11:34:59;23.70;97.00
10030;DHT22;5055;52.054;8.524;2023-09-30T11:37:40;22.80;97.00
10030;DHT22;5055;52.054;8.524;2023-09-30T11:40:20;22.30;97.00
10030;DHT22;5055;52.054;8.524;2023-09-30T11:43:08;21.80;97.00
10030;DHT22;5055;52.054;8.524;2023-09-30T11:46:10;21.30;97.00
10030;DHT22;5055;52.054;8.524;2023-09-30T11:49:05;21.60;97.00
10030;DHT22;5055;52.054;8.524;2023-09-30T11:55:20;21.90;97.00
10030;DHT22;5055;52.054;8.524;2023-09-30T11:57:55;22.20;97.00
10030;DHT22;5055;52.054;8.524;2023-09-30T12:00:56;21.80;97.00
10030;DHT22;5055;52.054;8.524;2023-09-30T12:03:43;21.80;97.00
10030;DHT22;5055;52.054;8.524;2023-09-30T12:06:40;22.10;97.00
10030;DHT22;5055;52.054;8.524;2023-09-30T12:09:41;22.30;97.00
10030;DHT22;5055;52.054;8.524;2023-09-30T12:12:21;22.90;97.00
10030;DHT22;5055;52.054;8.524;2023-09-30T12:15:22;23.20;97.00
10030;DHT22;5055;52.054;8.524;2023-09-30T12:18:33;23.10;97.00
10030;DHT22;5055;52.054;8.524;2023-09-30T12:21:04;23.20;97.00
10030;DHT22;5055;52.054;8.524;2023-09-30T12:23:57;23.10;97.00
10030;DHT22;5055;52.054;8.524;2023-09-30T12:26:43;23.20;97.00
10030;DHT22;5055;52.054;8.524;2023-09-30T12:29:42;23.20;97.00
10030;DHT22;5055;52.054;8.524;2023-09-30T12:32:28;23.00;97.00
10030;DHT22;5055;52.054;8.524;2023-09-30T12:35:50;23.10;97.00
10030;DHT22;5055;52.054;8.524;2023-09-30T12:38:34;22.70;97.00
10030;DHT22;5055;52.054;8.524;2023-09-30T12:41:11;22.90;97.00
10030;DHT22;5055;52.054;8.524;2023-09-30T12:44:16;23.30;97.00
10030;DHT22;5055;52.054;8.524;2023-09-30T12:47:28;23.50;97.00
10030;DHT22;5055;52.054;8.524;2023-09-30T12:50:29;24.10;97.00
10030;DHT22;5055;52.054;8.524;2023-09-30T12:53:03;24.70;97.00
10030;DHT22;5055;52.054;8.524;2023-09-30T12:55:56;25.00;97.00
10030;DHT22;5055;52.054;8.524;2023-09-30T12:59:04;25.60;97.00
10030;DHT22;5055;52.054;8.524;2023-09-30T13:05:29;25.60;97.00
10030;DHT22;5055;52.054;8.524;2023-09-30T13:08:22;25.20;97.00
10030;DHT22;5055;52.054;8.524;2023-09-30T13:11:14;25.40;97.00
10030;DHT22;5055;52.054;8.524;2023-09-30T13:14:00;25.60;97.00
10030;DHT22;5055;52.054;8.524;2023-09-30T13:16:58;25.50;97.00
10030;DHT22;5055;52.054;8.524;2023-09-30T13:19:47;25.90;97.00
10030;DHT22;5055;52.054;8.524;2023-09-30T13:23:32;26.00;97.00
10030;DHT22;5055;52.054;8.524;2023-09-30T13:26:33;26.10;97.00
10030;DHT22;5055;52.054;8.524;2023-09-30T13:29:03;25.80;97.00
10030;DHT22;5055;52.054;8.524;2023-09-30T13:31:52;26.00;97.00
10030;DHT22;5055;52.054;8.524;2023-09-30T13:34:33;26.10;97.00
10030;DHT22;5055;52.054;8.524;2023-09-30T13:37:09;26.10;97.00
10030;DHT22;5055;52.054;8.524;2023-09-30T13:39:53;26.60;97.00
10030;DHT22;5055;52.054;8.524;2023-09-30T13:42:31;26.80;97.00
10030;DHT22;5055;52.054;8.524;2023-09-30T13:45:29;27.00;97.00
10030;DHT22;5055;52.054;8.524;2023-09-30T13:48:22;26.20;97.00
10030;DHT22;5055;52.054;8.524;2023-09-30T13:51:06;26.40;97.00
10030;DHT22;5055;52.054;8.524;2023-09-30T13:54:29;26.90;97.00
10030;DHT22;5055;52.054;8.524;2023-09-30T13:57:21;26.90;97.00
10030;DHT22;5055;52.054;8.524;2023-09-30T14:00:25;27.30;97.00
10030;DHT22;5055;52.054;8.524;2023-09-30T14:03:22;26.60;97.00
10030;DHT22;5055;52.054;8.524;2023-09-30T14:06:17;26.00;97.00
10030;DHT22;5055;52.054;8.524;2023-09-30T14:09:25;26.20;97.00
10030;DHT22;5055;52.054;8.524;2023-09-30T14:12:24;26.10;97.00
10030;DHT22;5055;52.054;8.524;2023-09-30T14:15:16;26.10;97.00
10030;DHT22;5055;52.054;8.524;2023-09-30T14:17:55;25.70;97.00
10030;DHT22;5055;52.054;8.524;2023-09-30T14:20:35;25.60;97.00
10030;DHT22;5055;52.054;8.524;2023-09-30T14:23:21;25.50;97.00
10030;DHT22;5055;52.054;8.524;2023-09-30T14:26:20;25.50;97.00
10030;DHT22;5055;52.054;8.524;2023-09-30T14:29:13;25.80;97.00
10030;DHT22;5055;52.054;8.524;2023-09-30T14:32:00;25.30;97.00
10030;DHT22;5055;52.054;8.524;2023-09-30T14:34:49;25.30;97.00
10030;DHT22;5055;52.054;8.524;2023-09-30T14:37:27;25.70;97.00
10030;DHT22;5055;52.054;8.524;2023-09-30T14:40:22;25.60;97.00
10030;DHT22;5055;52.054;8.524;2023-09-30T14:43:01;26.10;97.00
10030;DHT22;5055;52.054;8.524;2023-09-30T14:45:42;25.80;97.00
10030;DHT22;5055;52.054;8.524;2023-09-30T14:48:26;25.60;97.00
10030;DHT22;5055;52.054;8.524;2023-09-30T14:51:34;25.70;97.00
10030;DHT22;5055;52.054;8.524;2023-09-30T14:54:34;25.60;97.00
10030;DHT22;5055;52.054;8.524;2023-09-30T14:57:20;25.10;97.00
10030;DHT22;5055;52.054;8.524;2023-09-30T15:00:16;25.00;97.00
10030;DHT22;5055;52.054;8.524;2023-09-30T15:02:59;25.10;97.00
10030;DHT22;5055;52.054;8.524;2023-09-30T15:05:57;25.00;97.00
10030;DHT22;5055;52.054;8.524;2023-09-30T15:08:44;25.20;97.00
10030;DHT22;5055;52.054;8.524;2023-09-30T15:11:33;25.40;97.00
10030;DHT22;5055;52.054;8.524;2023-09-30T15:14:55;25.30;97.00
10030;DHT22;5055;52.054;8.524;2023-09-30T15:18:01;25.40;97.00
10030;DHT22;5055;52.054;8.524;2023-09-30T15:20:40;25.30;97.00
10030;DHT22;5055;52.054;8.524;2023-09-30T15:23:25;25.00;97.00
10030;DHT22;5055;52.054;8.524;2023-09-30T15:26:20;24.40;97.00
10030;DHT22;5055;52.054;8.524;2023-09-30T15:29:02;24.40;97.00
10030;DHT22;5055;52.054;8.524;2023-09-30T15:31:49;24.50;97.00
10030;DHT22;5055;52.054;8.524;2023-09-30T15:34:42;24.50;97.00
10030;DHT22;5055;52.054;8.524;2023-09-30T15:37:36;24.30;97.00
10030;DHT22;5055;52.054;8.524;2023-09-30T15:40:25;24.00;97.00
10030;DHT22;5055;52.054;8.524;2023-09-30T15:43:05;23.80;97.00
10030;DHT22;5055;52.054;8.524;2023-09-30T15:45:58;23.40;97.00
10030;DHT22;5055;52.054;8.524;2023-09-30T15:48:34;23.00;97.00
10030;DHT22;5055;52.054;8.524;2023-09-30T15:51:26;22.50;97.00
10030;DHT22;5055;52.054;8.524;2023-09-30T15:54:30;22.30;97.00
10030;DHT22;5055;52.054;8.524;2023-09-30T15:57:12;22.10;97.00
10030;DHT22;5055;52.054;8.524;2023-09-30T16:00:07;21.90;97.00
10030;DHT22;5055;52.054;8.524;2023-09-30T16:02:51;21.70;97.00
10030;DHT22;5055;52.054;8.524;2023-09-30T16:05:37;21.40;97.00
10030;DHT22;5055;52.054;8.524;2023-09-30T16:09:06;21.30;97.00
10030;DHT22;5055;52.054;8.524;2023-09-30T16:11:46;21.10;97.00
10030;DHT22;5055;52.054;8.524;2023-09-30T16:14:37;20.90;97.00
10030;DHT22;5055;52.054;8.524;2023-09-30T16:17:15;20.70;97.00
10030;DHT22;5055;52.054;8.524;2023-09-30T16:19:57;20.60;97.00
10030;DHT22;5055;52.054;8.524;2023-09-30T16:23:05;20.40;97.00
10030;DHT22;5055;52.054;8.524;2023-09-30T16:25:44;20.20;97.00
10030;DHT22;5055;52.054;8.524;2023-09-30T16:28:22;20.00;97.00
10030;DHT22;5055;52.054;8.524;2023-09-30T16:31:11;19.80;97.00
10030;DHT22;5055;52.054;8.524;2023-09-30T16:34:12;19.60;97.00
10030;DHT22;5055;52.054;8.524;2023-09-30T16:37:00;19.30;97.00
10030;DHT22;5055;52.054;8.524;2023-09-30T16:39:35;19.20;97.00
10030;DHT22;5055;52.054;8.524;2023-09-30T16:42:23;19.00;97.00
10030;DHT22;5055;52.054;8.524;2023-09-30T16:45:26;18.70;97.00
10030;DHT22;5055;52.054;8.524;2023-09-30T16:48:23;18.40;97.00
10030;DHT22;5055;52.054;8.524;2023-09-30T16:51:12;18.20;97.00
10030;DHT22;5055;52.054;8.524;2023-09-30T16:57:29;17.90;97.00
10030;DHT22;5055;52.054;8.524;2023-09-30T17:00:20;17.70;97.00
10030;DHT22;5055;52.054;8.524;2023-09-30T17:03:09;17.50;97.00
10030;DHT22;5055;52.054;8.524;2023-09-30T17:06:01;17.40;97.00
10030;DHT22;5055;52.054;8.524;2023-09-30T17:08:39;17.30;97.00
10030;DHT22;5055;52.054;8.524;2023-09-30T17:11:28;17.20;97.00
10030;DHT22;5055;52.054;8.524;2023-09-30T17:14:25;17.10;97.00
10030;DHT22;5055;52.054;8.524;2023-09-30T17:17:10;16.90;97.00
10030;DHT22;5055;52.054;8.524;2023-09-30T17:19:57;16.80;97.00
10030;DHT22;5055;52.054;8.524;2023-09-30T17:22:47;16.60;97.00
10030;DHT22;5055;52.054;8.524;2023-09-30T17:25:22;16.50;97.00
10030;DHT22;5055;52.054;8.524;2023-09-30T17:28:13;16.50;97.00
10030;DHT22;5055;52.054;8.524;2023-09-30T17:31:16;16.40;97.00
10030;DHT22;5055;52.054;8.524;2023-09-30T17:33:56;16.40;97.00
10030;DHT22;5055;52.054;8.524;2023-09-30T17:36:36;16.40;97.00
10030;DHT22;5055;52.054;8.524;2023-09-30T17:39:30;16.30;97.00
10030;DHT22;5055;52.054;8.524;2023-09-30T17:42:13;16.30;97.00
10030;DHT22;5055;52.054;8.524;2023-09-30T17:44:50;16.20;97.00
10030;DHT22;5055;52.054;8.524;2023-09-30T17:47:33;16.20;97.00
10030;DHT22;5055;52.054;8.524;2023-09-30T17:50:39;16.20;97.00
10030;DHT22;5055;52.054;8.524;2023-09-30T17:53:16;16.20;97.00
10030;DHT22;5055;52.054;8.524;2023-09-30T17:55:55;16.10;97.00
10030;DHT22;5055;52.054;8.524;2023-09-30T17:58:42;16.10;97.00
10030;DHT22;5055;52.054;8.524;2023-09-30T18:01:35;16.10;97.00
10030;DHT22;5055;52.054;8.524;2023-09-30T18:07:30;15.90;97.00
10030;DHT22;5055;52.054;8.524;2023-09-30T18:10:28;15.90;97.00
10030;DHT22;5055;52.054;8.524;2023-09-30T18:13:23;15.80;97.00
10030;DHT22;5055;52.054;8.524;2023-09-30T18:16:08;15.80;97.00
10030;DHT22;5055;52.054;8.524;2023-09-30T18:19:04;15.70;97.00
10030;DHT22;5055;52.054;8.524;2023-09-30T18:21:42;15.70;97.00
10030;DHT22;5055;52.054;8.524;2023-09-30T18:24:56;15.60;97.00
10030;DHT22;5055;52.054;8.524;2023-09-30T18:27:49;15.60;97.00
10030;DHT22;5055;52.054;8.524;2023-09-30T18:30:40;15.60;97.00
10030;DHT22;5055;52.054;8.524;2023-09-30T18:33:41;15.60;97.00
10030;DHT22;5055;52.054;8.524;2023-09-30T18:36:29;15.60;97.00
10030;DHT22;5055;52.054;8.524;2023-09-30T18:39:08;15.50;97.00
10030;DHT22;5055;52.054;8.524;2023-09-30T18:41:55;15.50;97.00
10030;DHT22;5055;52.054;8.524;2023-09-30T18:45:14;15.50;97.00
10030;DHT22;5055;52.054;8.524;2023-09-30T18:48:00;15.40;97.00
10030;DHT22;5055;52.054;8.524;2023-09-30T18:51:01;15.40;97.00
10030;DHT22;5055;52.054;8.524;2023-09-30T18:53:59;15.30;97.00